Time;durP1;ratioP1;P1;durP2;ratioP2;P2;SDS_P1;SDS_P2;PMS_P1;PMS_P2;Temp;Humidity;BMP_temperature;BMP_pressure;BME280_temperature;BME280_humidity;BME280_pressure;Samples;Min_cycle;Max_cycle;Signal;HPM_P1;HPM_P2
2021/04/29 00:01:22;;;;;;;29.35;11.97;;;;;;;3.87;56.93;96410.60;1701070;84;25828;-84
2021/04/29 00:03:50;;;;;;;26.37;12.00;;;;;;;3.81;57.07;96403.89;1703657;84;27616;-85
2021/04/29 00:06:17;;;;;;;28.12;13.15;;;;;;;3.80;57.46;96404.39;1704322;84;25878;-85
2021/04/29 00:08:44;;;;;;;22.65;10.85;;;;;;;3.73;57.36;96408.88;1704434;84;25781;-85
2021/04/29 00:11:12;;;;;;;23.57;11.83;;;;;;;3.73;57.32;96408.05;1704429;84;26831;-85
2021/04/29 00:13:39;;;;;;;26.40;12.35;;;;;;;3.75;57.54;96410.81;1704429;84;26545;-85
2021/04/29 00:16:07;;;;;;;28.05;12.47;;;;;;;3.74;57.42;96416.38;1704325;84;28441;-85
2021/04/29 00:18:34;;;;;;;25.77;11.83;;;;;;;3.71;57.52;96409.56;1704247;84;25455;-85
2021/04/29 00:21:02;;;;;;;24.65;11.15;;;;;;;3.67;57.59;96410.95;1704282;84;25926;-86
2021/04/29 00:23:30;;;;;;;22.22;10.32;;;;;;;3.59;57.63;96411.11;1704208;84;25884;-85
2021/04/29 00:25:58;;;;;;;27.90;11.25;;;;;;;3.45;57.66;96413.33;1704387;84;25848;-85
2021/04/29 00:28:25;;;;;;;20.88;10.72;;;;;;;3.41;57.88;96410.72;1704313;84;28543;-86
2021/04/29 00:30:52;;;;;;;25.70;11.40;;;;;;;3.42;57.92;96411.03;1704293;84;26366;-85
2021/04/29 00:33:20;;;;;;;23.25;11.48;;;;;;;3.39;58.08;96415.41;1704372;84;26284;-85
2021/04/29 00:35:47;;;;;;;28.52;12.63;;;;;;;3.36;58.34;96414.48;1704402;84;25784;-85
2021/04/29 00:38:16;;;;;;;30.52;12.60;;;;;;;3.37;58.36;96412.13;1704245;84;25453;-85
2021/04/29 00:40:44;;;;;;;27.35;12.85;;;;;;;3.32;58.30;96409.20;1703692;82;28442;-85
2021/04/29 00:43:12;;;;;;;28.10;11.97;;;;;;;3.30;58.45;96414.72;1682027;83;25806;-86
2021/04/29 00:45:41;;;;;;;28.27;11.70;;;;;;;3.19;58.38;96414.72;1682134;83;25795;-86
2021/04/29 00:48:08;;;;;;;21.93;11.12;;;;;;;3.09;58.70;96411.53;1682106;83;25950;-85
2021/04/29 00:50:36;;;;;;;23.80;11.10;;;;;;;3.09;58.84;96412.88;1682086;83;25703;-85
2021/04/29 00:53:03;;;;;;;23.27;10.93;;;;;;;3.11;59.04;96408.69;1682167;85;27501;-85
2021/04/29 00:55:30;;;;;;;20.23;10.53;;;;;;;3.15;58.98;96417.94;1682109;83;26323;-85
2021/04/29 00:57:58;;;;;;;21.05;9.90;;;;;;;3.17;58.76;96413.25;1682339;83;25727;-85
2021/04/29 01:00:27;;;;;;;19.30;10.10;;;;;;;3.19;58.85;96413.38;1682137;83;27240;-86
2021/04/29 01:03:06;;;;;;;16.70;8.75;;;;;;;3.16;58.81;96409.75;1682256;85;25964;-86
2021/04/29 01:05:41;;;;;;;16.82;8.30;;;;;;;3.12;58.82;96409.83;1682186;83;28468;-85
2021/04/29 01:11:00;;;;;;;18.98;9.50;;;;;;;3.02;59.11;96403.95;1843436;74;26072;-86
2021/04/29 01:13:31;;;;;;;27.37;10.85;;;;;;;2.89;59.15;96401.17;1822069;77;25416;-86
2021/04/29 01:16:00;;;;;;;19.62;10.08;;;;;;;2.88;59.37;96396.34;1839682;75;27602;-86
2021/04/29 01:18:28;;;;;;;20.88;9.63;;;;;;;2.93;59.40;96398.42;1834516;76;26114;-86
2021/04/29 01:21:06;;;;;;;17.07;8.98;;;;;;;2.97;59.38;96403.71;1838588;75;25692;-86
2021/04/29 01:23:42;;;;;;;19.82;9.00;;;;;;;3.00;59.37;96395.85;1839360;77;26148;-84
2021/04/29 01:26:27;;;;;;;16.90;9.03;;;;;;;2.99;59.39;96403.02;1814280;75;25821;-85
2021/04/29 01:28:55;;;;;;;21.07;8.93;;;;;;;2.96;59.43;96399.89;1829968;76;28461;-85
2021/04/29 01:31:26;;;;;;;15.23;8.30;;;;;;;2.93;59.57;96407.76;1838260;75;26075;-86
2021/04/29 01:33:55;;;;;;;17.77;8.15;;;;;;;2.88;59.53;96406.18;1800767;77;25845;-86
2021/04/29 01:36:23;;;;;;;42.80;16.80;;;;;;;2.85;59.56;96406.55;1833451;75;25661;-85
2021/04/29 01:38:50;;;;;;;53.17;19.95;;;;;;;2.83;59.61;96401.40;1827491;75;25784;-85
2021/04/29 01:41:18;;;;;;;38.58;15.78;;;;;;;2.78;59.73;96402.96;1819672;75;27503;-84
2021/04/29 01:43:46;;;;;;;33.48;14.03;;;;;;;2.71;59.96;96403.40;1831630;75;25653;-84
2021/04/29 01:46:13;;;;;;;23.30;11.22;;;;;;;2.66;60.02;96406.61;1838065;75;25772;-85
2021/04/29 01:48:41;;;;;;;16.37;8.48;;;;;;;2.63;60.29;96396.86;1831161;77;25723;-85
2021/04/29 01:51:10;;;;;;;18.17;8.90;;;;;;;2.58;60.35;96396.58;1845511;75;26260;-86
2021/04/29 01:53:39;;;;;;;22.13;11.68;;;;;;;2.50;60.45;96389.02;1849373;76;27608;-85
2021/04/29 01:56:08;;;;;;;23.50;11.10;;;;;;;2.53;60.45;96397.98;1842104;75;25792;-85
2021/04/29 01:58:35;;;;;;;21.48;12.88;;;;;;;2.47;60.53;96393.38;1818515;77;25363;-85
2021/04/29 02:01:02;;;;;;;22.30;12.78;;;;;;;2.35;60.61;96383.38;1836199;75;26227;-86
2021/04/29 02:03:30;;;;;;;28.38;14.40;;;;;;;2.34;60.94;96381.22;1837654;76;25800;-85
2021/04/29 02:05:57;;;;;;;26.73;15.03;;;;;;;2.33;60.98;96385.39;1823470;75;27605;-86
2021/04/29 02:08:24;;;;;;;27.27;15.25;;;;;;;2.21;60.94;96391.69;1824818;75;25824;-85
2021/04/29 02:10:53;;;;;;;20.82;10.58;;;;;;;2.19;61.28;96383.05;1852035;76;25685;-85
2021/04/29 02:13:21;;;;;;;15.98;9.13;;;;;;;2.17;61.41;96376.58;1834457;75;25888;-86
2021/04/29 02:16:03;;;;;;;20.68;11.33;;;;;;;2.16;61.38;96375.45;1842773;76;25809;-86
2021/04/29 02:18:32;;;;;;;21.15;10.45;;;;;;;2.09;61.52;96371.86;1862685;76;28538;-85
2021/04/29 02:21:01;;;;;;;15.93;9.13;;;;;;;2.09;61.78;96374.52;1841429;76;25777;-86
2021/04/29 02:23:29;;;;;;;14.68;7.95;;;;;;;2.16;61.76;96372.80;1831915;75;25759;-86
2021/04/29 02:26:00;;;;;;;18.05;8.90;;;;;;;2.16;61.66;96376.28;1841598;76;25744;-85
2021/04/29 02:28:30;;;;;;;24.50;11.05;;;;;;;2.16;61.73;96384.78;1837894;76;26383;-86
2021/04/29 02:30:58;;;;;;;24.60;10.98;;;;;;;2.13;61.71;96389.95;1852037;76;27465;-85
2021/04/29 02:33:25;;;;;;;21.85;9.30;;;;;;;2.05;61.77;96395.88;1836806;76;26320;-85
2021/04/29 02:35:52;;;;;;;15.20;8.30;;;;;;;1.96;61.88;96395.12;1839290;76;25700;-85
2021/04/29 02:38:20;;;;;;;17.12;8.40;;;;;;;1.97;62.08;96398.11;1852050;76;25684;-84
2021/04/29 02:40:49;;;;;;;16.87;8.33;;;;;;;1.98;62.35;96402.92;1851935;76;25903;-85
2021/04/29 02:43:17;;;;;;;16.10;7.67;;;;;;;1.97;62.36;96398.61;1860770;76;27558;-86
2021/04/29 02:45:46;;;;;;;15.75;8.38;;;;;;;1.96;62.41;96396.95;1848441;76;26064;-85
2021/04/29 02:48:15;;;;;;;15.60;8.23;;;;;;;1.95;62.32;96397.45;1841875;76;25756;-84
2021/04/29 02:50:44;;;;;;;14.90;8.15;;;;;;;1.86;62.42;96395.06;1838047;76;25747;-85
2021/04/29 02:53:17;;;;;;;12.85;7.62;;;;;;;1.80;62.70;96389.48;1843192;76;25725;-84
2021/04/29 02:55:48;;;;;;;15.60;8.38;;;;;;;1.84;62.82;96381.94;1831956;75;28408;-85
2021/04/29 02:58:17;;;;;;;15.88;8.25;;;;;;;1.86;62.80;96391.08;1831794;76;25895;-85
2021/04/29 03:00:46;;;;;;;19.12;9.35;;;;;;;1.83;63.02;96398.08;1831878;76;25772;-85
2021/04/29 03:03:13;;;;;;;29.98;15.35;;;;;;;1.74;63.00;96400.00;1832041;76;26080;-85
2021/04/29 03:05:41;;;;;;;28.40;12.05;;;;;;;1.76;63.23;96406.80;1831764;76;25869;-86
2021/04/29 03:08:09;;;;;;;23.62;13.18;;;;;;;1.81;63.31;96408.40;1837740;76;27539;-85
2021/04/29 03:10:37;;;;;;;25.92;14.15;;;;;;;1.87;63.37;96412.69;1851813;76;26128;-85
2021/04/29 03:13:05;;;;;;;26.62;13.03;;;;;;;1.93;63.36;96414.14;1833574;76;25789;-85
2021/04/29 03:15:32;;;;;;;22.13;12.88;;;;;;;2.01;63.40;96403.90;1832073;76;26408;-84
2021/04/29 03:17:59;;;;;;;22.07;11.80;;;;;;;2.05;63.29;96399.88;1851074;76;25802;-84
2021/04/29 03:20:27;;;;;;;19.05;11.60;;;;;;;2.05;63.52;96396.68;1840531;76;27550;-85
2021/04/29 03:22:55;;;;;;;20.95;11.22;;;;;;;2.03;63.44;96395.23;1835277;76;26332;-85
2021/04/29 03:25:22;;;;;;;22.25;11.57;;;;;;;2.07;63.40;96395.17;1852007;76;25800;-85
2021/04/29 03:27:49;;;;;;;21.15;11.22;;;;;;;2.11;63.31;96388.48;1837837;76;25781;-86
2021/04/29 03:30:17;;;;;;;21.97;10.65;;;;;;;2.14;63.49;96400.10;1843616;76;25697;-85
2021/04/29 03:32:45;;;;;;;22.77;10.70;;;;;;;2.15;63.33;96404.42;1831764;76;27532;-85
2021/04/29 03:35:12;;;;;;;25.65;11.30;;;;;;;2.20;63.33;96407.34;1831757;76;26167;-86
2021/04/29 03:37:39;;;;;;;19.85;11.43;;;;;;;2.25;63.42;96404.14;1831760;76;25757;-85
2021/04/29 03:40:08;;;;;;;24.00;11.55;;;;;;;2.30;63.38;96407.89;1831958;76;25813;-84
2021/04/29 03:42:35;;;;;;;24.15;11.68;;;;;;;2.34;63.43;96407.85;1840064;76;25317;-84
2021/04/29 03:45:05;;;;;;;27.10;11.65;;;;;;;2.37;63.44;96404.00;1840583;76;27702;-86
2021/04/29 03:47:32;;;;;;;24.77;11.80;;;;;;;2.40;63.58;96399.14;1833298;76;25669;-86
2021/04/29 03:50:00;;;;;;;23.05;12.10;;;;;;;2.44;63.51;96403.06;1849757;75;25775;-85
2021/04/29 03:52:27;;;;;;;27.95;12.60;;;;;;;2.48;63.42;96399.53;1854196;76;25736;-86
2021/04/29 03:54:54;;;;;;;31.07;12.73;;;;;;;2.53;63.44;96397.98;1858363;76;25854;-85
2021/04/29 03:57:22;;;;;;;27.82;13.45;;;;;;;2.59;63.41;96395.06;1854064;75;28547;-85
2021/04/29 03:59:49;;;;;;;36.98;14.58;;;;;;;2.65;63.55;96396.17;1839404;76;25739;-84
2021/04/29 04:02:16;;;;;;;37.78;14.45;;;;;;;2.70;63.57;96397.24;1861518;76;25672;-86
2021/04/29 04:04:44;;;;;;;32.48;13.48;;;;;;;2.77;63.61;96393.34;1856156;76;25802;-85
2021/04/29 04:07:11;;;;;;;37.08;12.80;;;;;;;2.82;63.33;96388.26;1832000;76;25876;-86
2021/04/29 04:09:38;;;;;;;24.12;11.15;;;;;;;2.87;63.29;96384.53;1850428;75;28654;-85
2021/04/29 04:12:07;;;;;;;23.60;10.15;;;;;;;2.95;63.25;96390.25;1805409;78;26471;-85
2021/04/29 04:14:34;;;;;;;21.62;10.20;;;;;;;3.02;63.08;96387.95;1789998;78;25810;-85
2021/04/29 04:17:01;;;;;;;23.52;11.65;;;;;;;3.09;62.92;96392.88;1790015;78;25845;-84
2021/04/29 04:19:29;;;;;;;21.40;10.65;;;;;;;3.17;63.23;96389.25;1790104;78;25863;-84
2021/04/29 04:21:56;;;;;;;23.65;11.43;;;;;;;3.24;63.15;96392.82;1790129;78;27344;-85
2021/04/29 04:24:23;;;;;;;28.23;11.53;;;;;;;3.31;63.04;96395.54;1790045;78;25743;-85
2021/04/29 04:26:51;;;;;;;25.00;12.93;;;;;;;3.38;63.10;96389.78;1790098;78;26367;-85
2021/04/29 04:29:18;;;;;;;35.63;13.90;;;;;;;3.47;63.06;96394.78;1790092;78;26322;-86
2021/04/29 04:31:45;;;;;;;38.40;14.53;;;;;;;3.55;62.81;96396.48;1790251;78;25687;-84
2021/04/29 04:34:13;;;;;;;37.13;16.93;;;;;;;3.63;62.83;96389.16;1790231;78;27496;-85
2021/04/29 04:36:40;;;;;;;30.82;16.32;;;;;;;3.72;62.95;96386.38;1790064;78;26166;-84
2021/04/29 04:39:07;;;;;;;26.10;12.98;;;;;;;3.80;62.87;96388.89;1790048;78;25834;-84
2021/04/29 04:41:35;;;;;;;27.42;11.65;;;;;;;3.88;62.87;96392.23;1790082;78;26309;-85
2021/04/29 04:44:03;;;;;;;25.48;11.60;;;;;;;3.96;62.85;96382.76;1790086;78;25782;-84
2021/04/29 04:46:30;;;;;;;18.75;10.72;;;;;;;4.05;62.75;96385.27;1796543;78;27487;-85
2021/04/29 04:48:57;;;;;;;18.73;10.82;;;;;;;4.11;62.42;96383.96;1790199;78;26196;-84
2021/04/29 04:51:25;;;;;;;25.27;12.73;;;;;;;4.18;62.31;96381.35;1790108;78;25333;-86
2021/04/29 04:53:52;;;;;;;23.07;11.93;;;;;;;4.25;62.33;96384.88;1805305;78;25714;-84
2021/04/29 04:56:19;;;;;;;27.98;12.05;;;;;;;4.31;62.20;96393.45;1799688;78;25698;-85
2021/04/29 04:58:47;;;;;;;24.65;10.28;;;;;;;4.37;62.15;96381.14;1809930;78;27493;-84
2021/04/29 05:01:14;;;;;;;23.47;10.28;;;;;;;4.45;62.17;96371.13;1790039;78;25783;-85
2021/04/29 05:03:41;;;;;;;26.33;11.60;;;;;;;4.54;62.21;96387.30;1800187;78;25312;-85
2021/04/29 05:06:09;;;;;;;32.78;12.33;;;;;;;4.62;62.01;96379.11;1802332;78;26242;-84
2021/04/29 05:08:36;;;;;;;36.55;12.43;;;;;;;4.68;61.97;96376.99;1812904;78;25325;-84
2021/04/29 05:11:04;;;;;;;23.80;12.03;;;;;;;4.76;61.78;96369.30;1806929;77;27479;-85
2021/04/29 05:13:31;;;;;;;27.98;10.60;;;;;;;4.86;61.83;96371.08;1820141;75;25869;-84
2021/04/29 05:15:58;;;;;;;22.13;10.30;;;;;;;4.96;61.61;96366.67;1801231;78;25790;-85
2021/04/29 05:18:26;;;;;;;30.70;11.05;;;;;;;5.04;61.40;96366.52;1816927;75;25695;-84
2021/04/29 05:20:54;;;;;;;26.07;10.10;;;;;;;5.13;61.42;96370.64;1809948;75;25388;-83
2021/04/29 05:23:21;;;;;;;22.05;10.25;;;;;;;5.23;61.29;96363.56;1830941;75;27551;-85
2021/04/29 05:25:48;;;;;;;20.30;10.93;;;;;;;5.27;61.04;96356.78;1809043;75;25922;-84
2021/04/29 05:28:16;;;;;;;18.50;10.60;;;;;;;5.36;61.10;96355.55;1831283;75;25886;-84
2021/04/29 05:30:43;;;;;;;21.35;11.08;;;;;;;5.47;61.06;96350.93;1826633;75;26784;-84
2021/04/29 05:33:11;;;;;;;30.65;10.85;;;;;;;5.58;60.94;96346.81;1828444;77;26432;-85
2021/04/29 05:35:38;;;;;;;33.25;13.50;;;;;;;5.65;61.27;96351.67;1809531;75;27550;-85
2021/04/29 05:38:05;;;;;;;29.77;14.25;;;;;;;5.74;60.95;96343.73;1833967;78;25833;-85
2021/04/29 05:40:33;;;;;;;25.35;12.73;;;;;;;5.84;60.62;96342.80;1834140;75;25754;-85
2021/04/29 05:43:00;;;;;;;38.13;17.32;;;;;;;5.92;60.65;96343.94;1811848;78;26476;-85
2021/04/29 05:45:28;;;;;;;40.08;17.62;;;;;;;5.98;60.82;96339.10;1816966;75;25802;-85
2021/04/29 05:47:55;;;;;;;43.65;21.85;;;;;;;6.08;60.35;96352.06;1813463;78;28481;-85
2021/04/29 05:50:23;;;;;;;58.15;24.32;;;;;;;6.19;60.23;96359.98;1826792;77;26046;-85
2021/04/29 05:52:50;;;;;;;58.28;24.18;;;;;;;6.30;60.20;96353.97;1824456;75;26344;-85
2021/04/29 05:55:17;;;;;;;49.80;20.48;;;;;;;6.40;60.06;96351.16;1824694;78;25771;-85
2021/04/29 05:57:45;;;;;;;31.52;15.45;;;;;;;6.48;59.90;96352.28;1831225;75;25799;-85
2021/04/29 06:00:14;;;;;;;37.45;15.48;;;;;;;6.55;59.63;96341.53;1823731;78;27490;-84
2021/04/29 06:02:41;;;;;;;76.15;30.82;;;;;;;6.58;59.26;96334.41;1827215;75;25769;-84
2021/04/29 06:05:09;;;;;;;91.30;38.85;;;;;;;6.66;59.47;96338.18;1829408;78;25813;-85
2021/04/29 06:07:37;;;;;;;120.02;46.53;;;;;;;6.73;59.29;96326.92;1808935;75;26390;-85
2021/04/29 06:10:05;;;;;;;126.40;51.28;;;;;;;6.82;59.24;96328.31;1834125;78;25751;-85
2021/04/29 06:12:32;;;;;;;111.20;44.93;;;;;;;6.93;59.32;96336.72;1823742;75;27548;-84
2021/04/29 06:15:00;;;;;;;124.67;48.55;;;;;;;7.03;58.93;96332.53;1811314;77;26401;-84
2021/04/29 06:17:27;;;;;;;124.60;50.50;;;;;;;7.14;58.60;96333.19;1811383;75;25804;-84
2021/04/29 06:19:55;;;;;;;83.27;35.45;;;;;;;7.26;58.41;96342.72;1840456;75;26638;-84
2021/04/29 06:22:22;;;;;;;65.37;28.77;;;;;;;7.35;58.01;96337.41;1836605;75;25903;-84
2021/04/29 06:24:49;;;;;;;40.08;19.05;;;;;;;7.41;57.70;96331.16;1817277;75;27480;-84
2021/04/29 06:27:17;;;;;;;29.98;15.00;;;;;;;7.53;57.62;96326.73;1811252;75;25785;-84
2021/04/29 06:29:44;;;;;;;37.20;16.48;;;;;;;7.64;57.37;96320.34;1839556;75;25903;-85
2021/04/29 06:32:12;;;;;;;41.10;19.35;;;;;;;7.75;57.37;96322.31;1848677;75;25767;-84
2021/04/29 06:34:39;;;;;;;51.30;22.40;;;;;;;7.82;57.09;96317.73;1848789;75;25820;-84
2021/04/29 06:37:07;;;;;;;49.93;20.05;;;;;;;7.91;56.80;96317.73;1837682;75;27484;-84
2021/04/29 06:39:34;;;;;;;37.15;18.27;;;;;;;8.02;56.60;96315.67;1833821;75;25781;-85
2021/04/29 06:42:01;;;;;;;36.73;16.70;;;;;;;8.13;56.33;96310.91;1814268;76;25789;-84
2021/04/29 06:44:29;;;;;;;30.45;16.17;;;;;;;8.24;56.39;96306.13;1835139;75;25804;-84
2021/04/29 06:46:57;;;;;;;34.13;14.60;;;;;;;8.34;56.11;96300.26;1818375;75;25941;-85
2021/04/29 06:49:27;;;;;;;26.62;14.63;;;;;;;8.47;55.84;96311.39;1811248;75;27672;-85
2021/04/29 06:51:55;;;;;;;22.05;11.65;;;;;;;8.57;55.46;96307.13;1839133;75;25797;-84
2021/04/29 06:54:23;;;;;;;18.77;11.28;;;;;;;8.68;55.31;96319.02;1830278;75;25779;-85
2021/04/29 06:56:52;;;;;;;20.75;11.50;;;;;;;8.78;55.08;96313.92;1842948;75;25942;-84
2021/04/29 06:59:20;;;;;;;35.55;13.55;;;;;;;8.88;54.95;96316.89;1820661;75;25845;-84
2021/04/29 07:01:48;;;;;;;25.32;13.03;;;;;;;8.99;55.06;96305.35;1831411;75;27485;-85
2021/04/29 07:04:16;;;;;;;25.35;13.28;;;;;;;9.12;54.72;96319.68;1811250;75;25281;-84
2021/04/29 07:06:44;;;;;;;31.55;13.98;;;;;;;9.20;54.62;96317.48;1856547;75;26250;-84
2021/04/29 07:09:11;;;;;;;24.07;12.55;;;;;;;9.30;54.69;96316.92;1851750;75;25827;-84
2021/04/29 07:11:39;;;;;;;29.37;13.32;;;;;;;9.46;54.75;96310.88;1853107;75;25751;-85
2021/04/29 07:14:06;;;;;;;29.85;13.60;;;;;;;9.64;54.60;96302.73;1847909;76;28442;-85
2021/04/29 07:16:34;;;;;;;23.90;12.73;;;;;;;9.79;54.93;96304.95;1832085;76;25819;-85
2021/04/29 07:19:01;;;;;;;21.17;11.97;;;;;;;9.90;54.90;96304.70;1846067;76;26304;-85
2021/04/29 07:21:29;;;;;;;21.23;12.33;;;;;;;10.00;54.88;96291.45;1831682;76;25789;-85
2021/04/29 07:23:56;;;;;;;24.47;12.28;;;;;;;10.11;55.14;96291.98;1833555;76;25730;-85
2021/04/29 07:26:24;;;;;;;25.60;11.75;;;;;;;10.20;54.81;96282.49;1845891;76;27462;-85
2021/04/29 07:28:51;;;;;;;21.62;12.47;;;;;;;10.33;54.77;96286.30;1822462;76;26148;-84
2021/04/29 07:31:18;;;;;;;19.50;11.57;;;;;;;10.47;54.30;96282.81;1853661;76;25819;-85
2021/04/29 07:33:46;;;;;;;23.75;11.18;;;;;;;10.61;54.11;96280.67;1842421;76;25746;-85
2021/04/29 07:36:13;;;;;;;19.75;11.08;;;;;;;10.72;53.87;96274.42;1845833;76;25781;-85
2021/04/29 07:38:41;;;;;;;21.27;12.23;;;;;;;10.87;53.83;96275.27;1831741;76;27495;-85
2021/04/29 07:41:08;;;;;;;16.73;10.93;;;;;;;11.16;53.87;96279.05;1831758;76;26386;-85
2021/04/29 07:43:36;;;;;;;20.02;11.35;;;;;;;11.65;54.24;96269.08;1860540;76;26520;-85
2021/04/29 07:46:03;;;;;;;21.85;10.80;;;;;;;12.00;53.33;96276.96;1834233;76;25709;-85
2021/04/29 07:48:31;;;;;;;18.85;11.18;;;;;;;12.21;53.12;96278.89;1831875;76;26399;-85
2021/04/29 07:51:00;;;;;;;20.37;10.03;;;;;;;12.65;52.26;96280.31;1836305;76;27560;-85
2021/04/29 07:53:28;;;;;;;19.12;11.63;;;;;;;13.24;52.08;96275.34;1835298;76;25841;-85
2021/04/29 07:55:55;;;;;;;22.17;11.38;;;;;;;13.76;51.70;96273.39;1831675;76;25855;-85
2021/04/29 07:58:23;;;;;;;20.02;10.68;;;;;;;14.18;51.02;96264.45;1845810;76;25799;-85
2021/04/29 08:00:51;;;;;;;18.73;10.93;;;;;;;14.60;50.74;96263.94;1832158;76;25893;-85
2021/04/29 08:03:18;;;;;;;14.87;9.55;;;;;;;15.01;50.08;96255.92;1831708;76;27692;-85
2021/04/29 08:05:46;;;;;;;19.05;10.58;;;;;;;15.33;49.62;96246.23;1835865;76;25822;-85
2021/04/29 08:08:14;;;;;;;16.65;9.18;;;;;;;15.62;49.19;96243.84;1859344;76;25715;-85
2021/04/29 08:10:41;;;;;;;18.35;9.28;;;;;;;15.85;48.59;96238.67;1854162;76;25736;-85
2021/04/29 08:13:11;;;;;;;13.53;8.55;;;;;;;16.15;48.46;96244.64;1848815;75;25752;-86
2021/04/29 08:15:42;;;;;;;14.10;8.38;;;;;;;16.44;47.86;96232.58;1820858;77;27471;-85
2021/04/29 08:18:10;;;;;;;14.53;8.97;;;;;;;16.49;47.26;96234.48;1818354;77;25788;-86
2021/04/29 08:20:40;;;;;;;14.58;9.35;;;;;;;16.58;46.79;96232.81;1811116;75;25941;-85
2021/04/29 08:23:08;;;;;;;14.68;9.53;;;;;;;16.64;46.88;96235.84;1827317;77;25685;-85
2021/04/29 08:25:35;;;;;;;13.80;8.13;;;;;;;17.02;46.44;96236.22;1826212;77;25361;-86
2021/04/29 08:28:04;;;;;;;15.40;8.43;;;;;;;17.45;45.80;96227.23;1823943;75;26662;-86
2021/04/29 08:30:32;;;;;;;16.77;9.38;;;;;;;17.91;45.16;96230.44;1856315;76;25676;-85
2021/04/29 08:33:02;;;;;;;19.20;8.88;;;;;;;18.33;44.89;96223.51;1792804;77;25809;-86
2021/04/29 08:35:31;;;;;;;15.72;9.10;;;;;;;18.66;44.27;96223.16;1759242;79;25787;-86
2021/04/29 08:37:59;;;;;;;18.20;9.18;;;;;;;18.96;44.39;96215.94;1777921;79;26453;-86
2021/04/29 08:40:29;;;;;;;16.82;8.95;;;;;;;19.30;44.00;96213.04;1766021;79;27347;-86
2021/04/29 08:42:58;;;;;;;14.10;8.98;;;;;;;19.57;42.77;96210.19;1778013;79;26589;-85
2021/04/29 08:45:26;;;;;;;15.00;9.15;;;;;;;19.47;42.43;96207.02;1775272;79;25771;-86
2021/04/29 08:47:56;;;;;;;13.78;8.83;;;;;;;19.71;42.74;96202.85;1780941;78;26455;-85
2021/04/29 08:50:27;;;;;;;16.27;9.40;;;;;;;20.04;42.02;96200.95;1759499;79;25747;-85
2021/04/29 08:52:55;;;;;;;15.10;9.30;;;;;;;20.23;41.65;96200.32;1768543;79;28520;-86
2021/04/29 08:55:26;;;;;;;12.98;8.78;;;;;;;20.53;41.30;96196.80;1762863;79;26122;-85
2021/04/29 08:57:54;;;;;;;12.75;8.65;;;;;;;20.92;41.18;96199.81;1759260;79;25823;-85
2021/04/29 09:00:24;;;;;;;16.37;9.00;;;;;;;21.29;40.96;96193.83;1766722;79;25785;-85
2021/04/29 09:02:55;;;;;;;14.13;8.53;;;;;;;21.71;40.80;96188.47;1778024;79;25861;-86
2021/04/29 09:05:30;;;;;;;14.73;9.38;;;;;;;22.07;40.30;96181.56;1766121;79;27559;-86
2021/04/29 09:08:08;;;;;;;15.78;7.90;;;;;;;22.29;39.44;96177.39;1764553;79;25781;-85
2021/04/29 09:10:44;;;;;;;10.40;7.30;;;;;;;22.30;39.23;96178.20;1759564;79;25813;-85
2021/04/29 09:13:22;;;;;;;12.85;8.15;;;;;;;22.34;39.00;96175.86;1764427;79;25811;-85
2021/04/29 09:15:51;;;;;;;13.03;7.20;;;;;;;22.46;38.42;96177.45;1771467;79;25822;-85
2021/04/29 09:18:22;;;;;;;12.43;7.50;;;;;;;22.56;38.40;96173.08;1789327;79;28422;-85
2021/04/29 09:20:57;;;;;;;9.15;7.60;;;;;;;22.83;38.22;96163.79;1783332;79;26371;-86
2021/04/29 09:23:29;;;;;;;12.07;6.62;;;;;;;22.97;37.55;96167.80;1768485;79;25848;-85
2021/04/29 09:25:59;;;;;;;;;;;;;;;23.01;37.87;96173.47;1783956;79;25731;-85
2021/04/29 09:28:52;;;;;;;11.48;4.70;;;;;;;22.88;36.83;96180.73;1762545;79;25767;-84
2021/04/29 09:31:25;;;;;;;9.83;4.28;;;;;;;22.71;36.74;96175.94;1772025;79;27558;-84
2021/04/29 09:34:01;;;;;;;10.63;4.92;;;;;;;22.46;36.77;96171.17;1781221;79;26540;-84
2021/04/29 09:36:43;;;;;;;7.22;3.83;;;;;;;22.48;35.49;96170.27;1771470;79;25759;-82
2021/04/29 09:39:15;;;;;;;7.62;4.17;;;;;;;22.41;35.93;96175.42;1762661;79;25857;-86
2021/04/29 09:41:46;;;;;;;;;;;;;;;22.20;35.97;96172.42;1765368;79;25770;-83
2021/04/29 09:44:17;;;;;;;9.35;3.62;;;;;;;22.02;35.69;96177.55;1775343;79;27557;-84
2021/04/29 09:46:51;;;;;;;8.25;3.67;;;;;;;21.82;36.08;96176.11;1772900;79;26143;-87
2021/04/29 09:49:22;;;;;;;9.70;4.42;;;;;;;22.02;36.35;96166.56;1775282;79;25803;-85
2021/04/29 09:51:55;;;;;;;7.08;3.80;;;;;;;22.12;36.26;96171.23;1763173;79;25852;-84
2021/04/29 09:54:36;;;;;;;6.78;4.12;;;;;;;22.00;36.00;96160.56;1763503;79;25881;-87
2021/04/29 09:57:10;;;;;;;4.70;3.73;;;;;;;22.04;36.19;96158.82;1772766;79;28456;-86
2021/04/29 09:59:41;;;;;;;10.10;3.42;;;;;;;21.97;36.29;96157.88;1770680;79;25752;-85
2021/04/29 10:02:12;;;;;;;7.00;3.27;;;;;;;21.90;36.16;96164.36;1787366;79;26291;-87
2021/04/29 10:04:41;;;;;;;8.85;3.35;;;;;;;21.74;35.86;96165.30;1765172;79;25723;-85
2021/04/29 10:07:10;;;;;;;7.55;3.35;;;;;;;21.45;35.93;96158.87;1747225;79;26472;-84
2021/04/29 10:09:39;;;;;;;9.55;3.17;;;;;;;21.06;36.52;96145.74;1762632;79;27674;-85
2021/04/29 10:12:15;;;;;;;7.08;3.33;;;;;;;21.06;36.52;96145.74;1785370;79;25881;-83
2021/04/29 10:14:49;;;;;;;6.60;3.85;;;;;;;20.96;36.83;96155.58;1778305;79;25826;-84
2021/04/29 10:17:20;;;;;;;6.30;3.55;;;;;;;20.79;37.30;96151.27;1785531;79;25525;-84
2021/04/29 10:19:55;;;;;;;7.37;3.55;;;;;;;20.70;37.29;96158.59;1767053;79;25923;-84
2021/04/29 10:22:24;;;;;;;7.85;3.60;;;;;;;20.59;37.56;96154.44;1763670;79;28555;-83
2021/04/29 10:24:52;;;;;;;8.60;3.52;;;;;;;20.55;37.97;96158.90;1766598;79;25436;-82
2021/04/29 10:27:29;;;;;;;6.78;2.67;;;;;;;20.43;38.15;96153.37;1764892;79;25790;-83
2021/04/29 10:30:12;;;;;;;5.80;2.67;;;;;;;20.42;38.45;96157.22;1766462;79;26483;-83
2021/04/29 10:32:40;;;;;;;5.08;2.98;;;;;;;20.40;38.38;96155.38;1776434;79;25698;-82
2021/04/29 10:35:23;;;;;;;6.87;2.70;;;;;;;20.30;38.78;96158.25;1767135;79;27727;-83
2021/04/29 10:37:58;;;;;;;;;;;;;;;20.14;38.82;96151.45;1780673;79;26129;-85
2021/04/29 10:40:38;;;;;;;6.67;2.75;;;;;;;19.93;38.86;96149.63;1763922;80;25922;-85
2021/04/29 10:43:09;;;;;;;4.62;2.08;;;;;;;19.72;39.37;96150.54;1768140;79;26392;-86
2021/04/29 10:45:37;;;;;;;5.22;2.15;;;;;;;19.71;39.67;96146.73;1765157;79;25814;-86
2021/04/29 10:48:09;;;;;;;6.40;2.62;;;;;;;19.71;39.82;96150.28;1784086;79;27700;-85
2021/04/29 10:50:51;;;;;;;5.62;2.20;;;;;;;19.65;39.79;96147.39;1765397;79;25368;-87
2021/04/29 10:53:31;;;;;;;12.58;2.58;;;;;;;19.56;39.54;96149.16;1760276;79;25893;-82
2021/04/29 10:56:15;;;;;;;6.15;2.25;;;;;;;19.34;39.55;96155.78;1767410;79;25731;-84
2021/04/29 10:58:43;;;;;;;11.00;2.30;;;;;;;19.12;39.46;96152.84;1768486;79;25849;-83
2021/04/29 11:01:18;;;;;;;9.50;2.70;;;;;;;19.02;39.71;96153.80;1759751;79;27518;-84
2021/04/29 11:03:50;;;;;;;6.83;3.20;;;;;;;19.03;39.94;96145.31;1764270;79;27843;-84
2021/04/29 11:06:30;;;;;;;7.67;2.72;;;;;;;19.42;39.94;96141.45;1785734;79;25800;-87
2021/04/29 11:09:01;;;;;;;6.05;2.83;;;;;;;19.69;39.52;96145.66;1778273;79;26456;-86
2021/04/29 11:11:34;;;;;;;6.83;2.87;;;;;;;19.99;38.73;96146.25;1778145;79;25812;-85
2021/04/29 11:14:12;;;;;;;4.45;3.15;;;;;;;20.36;38.35;96153.53;1754488;80;27477;-83
2021/04/29 11:16:57;;;;;;;10.15;2.77;;;;;;;20.74;37.08;96156.88;1750132;80;26163;-85
2021/04/29 11:19:59;;;;;;;4.05;2.95;;;;;;;21.11;37.31;96146.20;1750227;80;25798;-84
2021/04/29 11:22:33;;;;;;;5.67;2.90;;;;;;;21.49;36.44;96148.09;1750463;80;26678;-85
2021/04/29 11:25:02;;;;;;;7.62;4.10;;;;;;;21.73;36.41;96145.84;1750230;80;25891;-85
2021/04/29 11:27:34;;;;;;;9.60;3.40;;;;;;;22.05;36.33;96139.28;1750424;80;28393;-83
2021/04/29 11:30:08;;;;;;;;;;;;;;;22.27;36.23;96141.16;1752571;80;25831;-84
2021/04/29 11:32:37;;;;;;;8.83;3.00;;;;;;;22.31;36.40;96144.91;1750222;80;25892;-84
2021/04/29 11:35:21;;;;;;;8.20;3.45;;;;;;;22.34;36.56;96147.00;1750196;80;25816;-84
2021/04/29 11:37:49;;;;;;;5.17;3.27;;;;;;;22.60;36.67;96153.41;1765251;80;25907;-85
2021/04/29 11:40:17;;;;;;;10.53;4.28;;;;;;;23.11;35.60;96146.45;1750361;80;28666;-84